createdAt,value
2023-04-07T00:00:44.474Z,0.00
2023-04-07T00:01:44.705Z,0.00
2023-04-07T00:02:45.020Z,0.00
2023-04-07T00:03:45.109Z,0.00
2023-04-07T00:04:45.182Z,0.00
2023-04-07T00:05:45.294Z,0.00
2023-04-07T00:06:45.503Z,0.00
2023-04-07T00:07:55.819Z,0.00
2023-04-07T00:08:46.832Z,0.00
2023-04-07T00:09:45.992Z,0.00
2023-04-07T00:10:46.193Z,0.00
2023-04-07T00:11:46.349Z,0.00
2023-04-07T00:12:46.546Z,0.00
2023-04-07T00:13:46.729Z,0.00
2023-04-07T00:14:46.891Z,0.00
2023-04-07T00:15:47.102Z,0.00
2023-04-07T00:16:47.223Z,0.00
2023-04-07T00:17:47.452Z,0.00
2023-04-07T00:18:47.598Z,0.00
2023-04-07T00:19:47.812Z,0.00
2023-04-07T00:20:47.925Z,0.00
2023-04-07T00:21:48.078Z,0.00
2023-04-07T00:22:48.352Z,0.00
2023-04-07T00:23:48.448Z,0.00
2023-04-07T00:24:48.640Z,0.00
2023-04-07T00:25:48.764Z,0.00
2023-04-07T00:26:48.983Z,0.00
2023-04-07T00:27:49.180Z,0.00
2023-04-07T00:28:49.320Z,0.00
2023-04-07T00:29:49.479Z,0.00
2023-04-07T00:30:49.739Z,0.00
2023-04-07T00:31:49.826Z,0.00
2023-04-07T00:32:50.068Z,0.00
2023-04-07T00:33:50.270Z,0.00
2023-04-07T00:34:50.381Z,0.00
2023-04-07T00:35:50.552Z,0.00
2023-04-07T00:36:50.709Z,0.00
2023-04-07T00:37:50.878Z,0.00
2023-04-07T00:38:51.052Z,0.00
2023-04-07T00:39:51.202Z,0.00
2023-04-07T00:40:51.535Z,0.00
2023-04-07T00:41:51.577Z,0.00
2023-04-07T00:42:51.733Z,0.00
2023-04-07T00:43:52.352Z,0.00
2023-04-07T00:44:52.067Z,0.00
2023-04-07T00:45:52.231Z,0.00
2023-04-07T00:46:52.441Z,0.00
2023-04-07T00:47:52.605Z,0.00
2023-04-07T00:48:52.832Z,0.00
2023-04-07T00:49:52.889Z,0.00
2023-04-07T00:50:53.083Z,0.00
2023-04-07T00:51:53.277Z,0.00
2023-04-07T00:52:53.402Z,0.00
2023-04-07T00:53:53.891Z,0.00
2023-04-07T00:54:53.733Z,0.00
2023-04-07T00:55:53.887Z,0.00
2023-04-07T00:56:54.091Z,0.00
2023-04-07T00:57:54.259Z,0.00
2023-04-07T00:58:54.458Z,0.00
2023-04-07T00:59:54.607Z,0.00
2023-04-07T01:00:54.781Z,0.00
2023-04-07T01:01:55.005Z,0.00
2023-04-07T01:02:55.289Z,0.00
2023-04-07T01:03:55.700Z,0.00
2023-04-07T01:04:55.565Z,0.00
2023-04-07T01:05:55.671Z,0.00
2023-04-07T01:06:55.802Z,0.00
2023-04-07T01:07:55.987Z,0.00
2023-04-07T01:08:56.152Z,0.00
2023-04-07T01:09:56.309Z,0.00
2023-04-07T01:10:56.501Z,0.00
2023-04-07T01:11:56.689Z,0.00
2023-04-07T01:12:56.873Z,0.00
2023-04-07T01:13:57.245Z,0.00
2023-04-07T01:14:57.208Z,0.00
2023-04-07T01:15:57.547Z,0.00
2023-04-07T01:16:57.621Z,0.00
2023-04-07T01:17:57.755Z,0.00
2023-04-07T01:18:57.906Z,0.00
2023-04-07T01:19:58.137Z,0.00
2023-04-07T01:20:58.242Z,0.00
2023-04-07T01:21:58.440Z,0.00
2023-04-07T01:22:58.627Z,0.00
2023-04-07T01:23:58.771Z,0.00
2023-04-07T01:24:58.987Z,0.00
2023-04-07T01:25:59.152Z,0.00
2023-04-07T01:26:59.318Z,0.00
2023-04-07T01:27:59.549Z,0.00
2023-04-07T01:28:59.663Z,0.00
2023-04-07T01:29:59.838Z,0.00
2023-04-07T01:30:59.999Z,0.00
2023-04-07T01:32:00.200Z,0.00
2023-04-07T01:33:00.423Z,0.00
2023-04-07T01:34:00.530Z,0.00
2023-04-07T01:35:00.678Z,0.00
2023-04-07T01:36:00.870Z,0.00
2023-04-07T01:37:01.034Z,0.00
2023-04-07T01:38:01.222Z,0.00
2023-04-07T01:39:01.374Z,0.00
2023-04-07T01:40:01.558Z,0.00
2023-04-07T01:41:01.708Z,0.00
2023-04-07T01:42:01.861Z,0.00
2023-04-07T01:43:02.053Z,0.00
2023-04-07T01:44:02.214Z,0.00
2023-04-07T01:45:02.369Z,0.00
2023-04-07T01:46:02.587Z,0.00
2023-04-07T01:47:02.792Z,0.00
2023-04-07T01:48:02.928Z,0.00
2023-04-07T01:49:03.063Z,0.00
2023-04-07T01:50:03.251Z,0.00
2023-04-07T01:51:03.412Z,0.00
2023-04-07T01:52:03.573Z,0.00
2023-04-07T01:53:03.766Z,0.00
2023-04-07T01:54:03.926Z,0.00
2023-04-07T01:55:04.098Z,0.00
2023-04-07T01:56:04.254Z,0.00
2023-04-07T01:57:04.419Z,0.00
2023-04-07T01:58:04.627Z,0.00
2023-04-07T01:59:04.788Z,0.00
2023-04-07T02:00:04.986Z,0.00
2023-04-07T02:01:05.201Z,0.00
2023-04-07T02:02:05.364Z,0.00
2023-04-07T02:03:05.637Z,0.00
2023-04-07T02:04:05.660Z,0.00
2023-04-07T02:05:05.806Z,0.00
2023-04-07T02:06:06.008Z,0.00
2023-04-07T02:07:06.176Z,0.00
2023-04-07T02:08:06.371Z,0.00
2023-04-07T02:09:06.529Z,0.00
2023-04-07T02:10:06.723Z,0.00
2023-04-07T02:11:06.868Z,0.00
2023-04-07T02:12:07.070Z,0.00
2023-04-07T02:13:07.242Z,0.00
2023-04-07T02:14:07.404Z,0.00
2023-04-07T02:15:07.572Z,0.00
2023-04-07T02:16:07.833Z,0.00
2023-04-07T02:17:07.927Z,0.00
2023-04-07T02:18:08.185Z,0.00
2023-04-07T02:19:08.295Z,0.00
2023-04-07T02:20:08.439Z,0.00
2023-04-07T02:21:08.608Z,0.00
2023-04-07T02:22:08.795Z,0.00
2023-04-07T02:23:08.944Z,0.00
2023-04-07T02:24:09.104Z,0.00
2023-04-07T02:25:09.316Z,0.00
2023-04-07T02:26:09.444Z,0.00
2023-04-07T02:27:09.593Z,0.00
2023-04-07T02:28:09.796Z,0.00
2023-04-07T02:29:09.904Z,0.00
2023-04-07T02:30:10.100Z,0.00
2023-04-07T02:31:10.271Z,0.00
2023-04-07T02:32:10.501Z,0.00
2023-04-07T02:33:10.633Z,0.00
2023-04-07T02:34:10.796Z,0.00
2023-04-07T02:35:10.951Z,0.00
2023-04-07T02:36:11.145Z,0.00
2023-04-07T02:37:11.444Z,0.00
2023-04-07T02:38:12.091Z,0.00
2023-04-07T02:39:11.660Z,0.00
2023-04-07T02:40:11.809Z,0.00
2023-04-07T02:41:11.984Z,0.00
2023-04-07T02:42:12.162Z,0.00
2023-04-07T02:43:12.312Z,0.00
2023-04-07T02:44:12.471Z,0.00
2023-04-07T02:45:12.646Z,0.00
2023-04-07T02:46:15.336Z,0.00
2023-04-07T02:47:12.982Z,0.00
2023-04-07T02:48:13.211Z,0.00
2023-04-07T02:49:13.358Z,0.00
2023-04-07T02:50:13.597Z,0.00
2023-04-07T02:51:13.706Z,0.00
2023-04-07T02:52:13.860Z,0.00
2023-04-07T02:53:14.029Z,0.00
2023-04-07T02:54:14.195Z,0.00
2023-04-07T02:55:14.392Z,0.00
2023-04-07T02:56:14.562Z,0.00
2023-04-07T02:57:14.729Z,0.00
2023-04-07T02:58:14.951Z,0.00
2023-04-07T02:59:15.073Z,0.00
2023-04-07T03:00:15.245Z,0.00
2023-04-07T03:01:15.480Z,0.00
2023-04-07T03:02:15.672Z,0.00
2023-04-07T03:03:16.033Z,0.00
2023-04-07T03:04:16.111Z,0.00
2023-04-07T03:05:16.114Z,0.00
2023-04-07T03:06:16.272Z,0.00
2023-04-07T03:07:16.427Z,0.00
2023-04-07T03:08:16.625Z,0.00
2023-04-07T03:09:16.854Z,0.00
2023-04-07T03:10:16.945Z,0.00
2023-04-07T03:11:17.123Z,0.00
2023-04-07T03:12:17.309Z,0.00
2023-04-07T03:13:17.458Z,0.00
2023-04-07T03:14:17.637Z,0.00
2023-04-07T03:15:18.894Z,0.00
2023-04-07T03:16:17.996Z,0.00
2023-04-07T03:17:18.128Z,0.00
2023-04-07T03:18:18.343Z,0.00
2023-04-07T03:19:18.508Z,0.00
2023-04-07T03:20:18.693Z,0.00
2023-04-07T03:21:18.841Z,0.00
2023-04-07T03:22:19.012Z,0.00
2023-04-07T03:23:19.175Z,0.00
2023-04-07T03:24:19.347Z,0.00
2023-04-07T03:25:19.529Z,0.00
2023-04-07T03:26:19.698Z,0.00
2023-04-07T03:27:19.866Z,0.00
2023-04-07T03:28:20.041Z,0.00
2023-04-07T03:29:20.215Z,0.00
2023-04-07T03:30:20.504Z,0.00
2023-04-07T03:31:20.605Z,0.00
2023-04-07T03:32:20.731Z,0.00
2023-04-07T03:33:20.928Z,0.00
2023-04-07T03:34:21.091Z,0.00
2023-04-07T03:35:21.243Z,0.00
2023-04-07T03:36:21.470Z,0.00
2023-04-07T03:37:21.620Z,0.00
2023-04-07T03:38:21.847Z,0.00
2023-04-07T03:39:22.001Z,0.00
2023-04-07T03:40:22.188Z,0.00
2023-04-07T03:41:22.353Z,0.00
2023-04-07T03:42:22.533Z,0.00
2023-04-07T03:43:22.704Z,0.00
2023-04-07T03:44:22.901Z,0.00
2023-04-07T03:45:23.024Z,0.00
2023-04-07T03:46:23.212Z,0.00
2023-04-07T03:47:23.354Z,0.00
2023-04-07T03:48:23.566Z,0.00
2023-04-07T03:49:23.723Z,0.00
2023-04-07T03:50:23.892Z,0.00
2023-04-07T03:51:24.039Z,0.00
2023-04-07T03:52:24.233Z,0.00
2023-04-07T03:53:24.399Z,0.00
2023-04-07T03:54:24.575Z,0.00
2023-04-07T03:55:24.739Z,0.00
2023-04-07T03:56:25.411Z,0.00
2023-04-07T03:57:25.103Z,0.00
2023-04-07T03:58:25.303Z,0.00
2023-04-07T03:59:25.430Z,0.00
2023-04-07T04:00:25.604Z,0.00
2023-04-07T04:01:25.775Z,0.00
2023-04-07T04:02:26.009Z,0.00
2023-04-07T04:03:26.168Z,0.00
2023-04-07T04:04:26.285Z,0.00
2023-04-07T04:05:26.436Z,0.00
2023-04-07T04:06:26.626Z,0.00
2023-04-07T04:07:26.776Z,0.00
2023-04-07T04:08:26.936Z,0.00
2023-04-07T04:09:27.129Z,0.00
2023-04-07T04:10:27.326Z,0.00
2023-04-07T04:11:27.460Z,0.00
2023-04-07T04:12:27.658Z,0.00
2023-04-07T04:13:27.832Z,0.00
2023-04-07T04:14:28.011Z,0.00
2023-04-07T04:15:28.182Z,0.00
2023-04-07T04:16:28.561Z,0.00
2023-04-07T04:17:28.620Z,0.00
2023-04-07T04:18:28.766Z,0.00
2023-04-07T04:19:28.884Z,0.00
2023-04-07T04:20:29.070Z,0.00
2023-04-07T04:21:29.257Z,0.00
2023-04-07T04:22:29.458Z,0.00
2023-04-07T04:23:29.585Z,0.00
2023-04-07T04:24:29.767Z,5.62
2023-04-07T04:25:29.961Z,5.62
2023-04-07T04:26:30.139Z,5.62
2023-04-07T04:27:30.319Z,5.62
2023-04-07T04:28:30.456Z,5.62
2023-04-07T04:29:32.373Z,5.62
2023-04-07T04:30:30.800Z,5.62
2023-04-07T04:31:31.071Z,11.25
2023-04-07T04:32:31.258Z,11.25
2023-04-07T04:33:31.375Z,11.25
2023-04-07T04:34:31.529Z,11.25
2023-04-07T04:35:31.694Z,16.88
2023-04-07T04:36:31.912Z,16.88
2023-04-07T04:37:32.064Z,16.88
2023-04-07T04:38:32.214Z,16.88
2023-04-07T04:39:32.405Z,22.50
2023-04-07T04:40:32.584Z,22.50
2023-04-07T04:41:32.753Z,22.50
2023-04-07T04:42:32.938Z,28.12
2023-04-07T04:43:33.117Z,28.12
2023-04-07T04:44:33.283Z,33.75
2023-04-07T04:45:33.452Z,33.75
2023-04-07T04:46:33.678Z,39.38
2023-04-07T04:47:33.870Z,39.38
2023-04-07T04:48:34.000Z,45.00
2023-04-07T04:49:34.191Z,50.62
2023-04-07T04:50:34.370Z,50.62
2023-04-07T04:51:34.528Z,56.25
2023-04-07T04:52:34.700Z,61.88
2023-04-07T04:53:34.889Z,61.88
2023-04-07T04:54:35.082Z,67.50
2023-04-07T04:55:35.262Z,73.12
2023-04-07T04:56:35.409Z,73.12
2023-04-07T04:57:35.564Z,78.75
2023-04-07T04:58:35.773Z,84.38
2023-04-07T04:59:35.925Z,84.38
2023-04-07T05:00:36.182Z,90.00
2023-04-07T05:01:36.293Z,95.62
2023-04-07T05:02:36.627Z,101.25
2023-04-07T05:03:36.813Z,101.25
2023-04-07T05:04:36.940Z,106.88
2023-04-07T05:05:36.991Z,112.50
2023-04-07T05:06:37.167Z,118.12
2023-04-07T05:07:37.449Z,129.38
2023-04-07T05:08:37.549Z,135.00
2023-04-07T05:09:37.726Z,140.62
2023-04-07T05:10:37.898Z,146.25
2023-04-07T05:11:38.053Z,157.50
2023-04-07T05:12:38.247Z,163.12
2023-04-07T05:13:38.482Z,168.75
2023-04-07T05:14:38.587Z,180.00
2023-04-07T05:15:38.743Z,196.88
2023-04-07T05:16:38.955Z,213.75
2023-04-07T05:17:39.127Z,230.62
2023-04-07T05:18:39.300Z,241.88
2023-04-07T05:19:39.445Z,253.12
2023-04-07T05:20:39.630Z,258.75
2023-04-07T05:21:39.758Z,264.38
2023-04-07T05:22:39.930Z,270.00
2023-04-07T05:23:40.104Z,275.62
2023-04-07T05:24:40.283Z,298.12
2023-04-07T05:25:40.469Z,315.00
2023-04-07T05:26:40.696Z,320.62
2023-04-07T05:27:40.812Z,337.50
2023-04-07T05:28:40.980Z,360.00
2023-04-07T05:29:41.145Z,393.75
2023-04-07T05:30:41.326Z,416.25
2023-04-07T05:31:41.542Z,438.75
2023-04-07T05:32:41.725Z,450.00
2023-04-07T05:33:41.882Z,450.00
2023-04-07T05:34:42.017Z,450.00
2023-04-07T05:35:42.200Z,444.38
2023-04-07T05:36:42.392Z,450.00
2023-04-07T05:37:42.594Z,450.00
2023-04-07T05:38:42.823Z,444.38
2023-04-07T05:39:42.927Z,405.00
2023-04-07T05:40:43.108Z,376.88
2023-04-07T05:41:43.274Z,382.50
2023-04-07T05:42:43.447Z,393.75
2023-04-07T05:43:43.619Z,399.38
2023-04-07T05:44:43.805Z,410.62
2023-04-07T05:45:44.035Z,416.25
2023-04-07T05:46:44.159Z,393.75
2023-04-07T05:47:44.384Z,388.12
2023-04-07T05:48:44.491Z,410.62
2023-04-07T05:49:44.678Z,433.12
2023-04-07T05:50:44.847Z,416.25
2023-04-07T05:51:46.723Z,416.25
2023-04-07T05:52:45.205Z,438.75
2023-04-07T05:53:45.389Z,461.25
2023-04-07T05:54:45.566Z,483.75
2023-04-07T05:55:45.743Z,461.25
2023-04-07T05:56:45.927Z,427.50
2023-04-07T05:57:46.102Z,427.50
2023-04-07T05:58:46.296Z,466.88
2023-04-07T05:59:46.484Z,500.62
2023-04-07T06:00:46.645Z,517.50
2023-04-07T06:01:46.930Z,523.12
2023-04-07T06:02:47.195Z,489.38
2023-04-07T06:03:47.429Z,421.88
2023-04-07T06:04:47.364Z,376.88
2023-04-07T06:05:47.537Z,365.62
2023-04-07T06:06:47.712Z,360.00
2023-04-07T06:07:47.893Z,354.38
2023-04-07T06:08:48.053Z,354.38
2023-04-07T06:09:48.239Z,348.75
2023-04-07T06:10:48.424Z,354.38
2023-04-07T06:11:48.587Z,360.00
2023-04-07T06:12:48.763Z,348.75
2023-04-07T06:13:49.063Z,348.75
2023-04-07T06:14:49.120Z,348.75
2023-04-07T06:15:49.326Z,354.38
2023-04-07T06:16:49.476Z,354.38
2023-04-07T06:17:49.658Z,360.00
2023-04-07T06:18:49.825Z,360.00
2023-04-07T06:19:50.004Z,365.62
2023-04-07T06:20:50.154Z,371.25
2023-04-07T06:21:50.349Z,376.88
2023-04-07T06:22:50.525Z,388.12
2023-04-07T06:23:51.090Z,393.75
2023-04-07T06:24:50.826Z,410.62
2023-04-07T06:25:51.007Z,416.25
2023-04-07T06:26:51.153Z,433.12
2023-04-07T06:27:51.363Z,450.00
2023-04-07T06:28:51.533Z,461.25
2023-04-07T06:29:51.734Z,472.50
2023-04-07T06:30:51.877Z,500.62
2023-04-07T06:31:52.033Z,489.38
2023-04-07T06:32:52.325Z,511.88
2023-04-07T06:33:52.407Z,500.62
2023-04-07T06:34:52.599Z,511.88
2023-04-07T06:35:52.764Z,528.75
2023-04-07T06:36:52.973Z,534.38
2023-04-07T06:37:53.129Z,540.00
2023-04-07T06:38:53.309Z,545.62
2023-04-07T06:39:53.457Z,556.88
2023-04-07T06:40:53.647Z,551.25
2023-04-07T06:41:53.805Z,534.38
2023-04-07T06:42:53.990Z,517.50
2023-04-07T06:43:54.194Z,511.88
2023-04-07T06:44:54.334Z,511.88
2023-04-07T06:45:54.555Z,517.50
2023-04-07T06:46:54.696Z,511.88
2023-04-07T06:47:55.017Z,500.62
2023-04-07T06:48:55.047Z,495.00
2023-04-07T06:49:55.215Z,495.00
2023-04-07T06:50:55.386Z,506.25
2023-04-07T06:51:55.566Z,528.75
2023-04-07T06:52:55.756Z,545.62
2023-04-07T06:53:55.951Z,562.50
2023-04-07T06:54:56.115Z,568.12
2023-04-07T06:55:56.291Z,579.38
2023-04-07T06:56:56.450Z,590.62
2023-04-07T06:57:56.630Z,607.50
2023-04-07T06:58:56.790Z,618.75
2023-04-07T06:59:56.966Z,641.25
2023-04-07T07:00:57.184Z,658.12
2023-04-07T07:01:57.376Z,686.25
2023-04-07T07:02:57.661Z,720.00
2023-04-07T07:03:57.743Z,736.88
2023-04-07T07:04:57.805Z,748.12
2023-04-07T07:05:57.969Z,759.38
2023-04-07T07:06:58.153Z,770.62
2023-04-07T07:07:58.322Z,821.25
2023-04-07T07:08:58.480Z,849.38
2023-04-07T07:09:58.642Z,978.75
2023-04-07T07:10:58.838Z,1130.62
2023-04-07T07:11:59.023Z,1051.88
2023-04-07T07:12:59.189Z,1001.25
2023-04-07T07:13:59.372Z,1040.62
2023-04-07T07:14:59.529Z,995.62
2023-04-07T07:15:59.727Z,984.38
2023-04-07T07:16:59.899Z,956.25
2023-04-07T07:18:00.100Z,911.25
2023-04-07T07:19:00.208Z,866.25
2023-04-07T07:20:00.384Z,916.88
2023-04-07T07:21:00.541Z,939.38
2023-04-07T07:22:00.740Z,990.00
2023-04-07T07:23:00.899Z,1040.62
2023-04-07T07:24:01.091Z,990.00
2023-04-07T07:25:01.254Z,883.12
2023-04-07T07:26:01.418Z,810.00
2023-04-07T07:27:01.595Z,770.62
2023-04-07T07:28:01.808Z,849.38
2023-04-07T07:29:01.984Z,905.62
2023-04-07T07:30:02.180Z,956.25
2023-04-07T07:31:02.309Z,939.38
2023-04-07T07:32:02.477Z,883.12
2023-04-07T07:33:02.693Z,810.00
2023-04-07T07:34:02.822Z,765.00
2023-04-07T07:35:02.989Z,781.88
2023-04-07T07:36:03.152Z,770.62
2023-04-07T07:37:03.314Z,798.75
2023-04-07T07:38:03.515Z,871.88
2023-04-07T07:39:03.623Z,911.25
2023-04-07T07:40:03.828Z,916.88
2023-04-07T07:41:03.984Z,821.25
2023-04-07T07:42:04.148Z,725.62
2023-04-07T07:43:04.329Z,646.88
2023-04-07T07:44:04.495Z,635.62
2023-04-07T07:45:04.667Z,630.00
2023-04-07T07:46:04.870Z,624.38
2023-04-07T07:47:05.041Z,630.00
2023-04-07T07:48:05.217Z,686.25
2023-04-07T07:49:05.372Z,691.88
2023-04-07T07:50:05.591Z,697.50
2023-04-07T07:51:05.699Z,765.00
2023-04-07T07:52:05.865Z,787.50
2023-04-07T07:53:06.029Z,821.25
2023-04-07T07:54:06.193Z,973.12
2023-04-07T07:55:06.443Z,1248.75
2023-04-07T07:56:06.542Z,1181.25
2023-04-07T07:57:06.689Z,1023.75
2023-04-07T07:58:06.891Z,990.00
2023-04-07T07:59:07.062Z,978.75
2023-04-07T08:00:07.229Z,984.38
2023-04-07T08:01:07.414Z,1051.88
2023-04-07T08:02:07.590Z,1040.62
2023-04-07T08:03:07.836Z,1271.25
2023-04-07T08:04:08.076Z,1468.12
2023-04-07T08:05:08.166Z,1260.00
2023-04-07T08:06:08.276Z,1147.50
2023-04-07T08:07:08.511Z,1029.38
2023-04-07T08:08:08.693Z,978.75
2023-04-07T08:09:08.851Z,956.25
2023-04-07T08:10:08.965Z,950.62
2023-04-07T08:11:09.131Z,922.50
2023-04-07T08:12:09.351Z,883.12
2023-04-07T08:13:09.545Z,860.62
2023-04-07T08:14:10.007Z,815.62
2023-04-07T08:15:09.816Z,787.50
2023-04-07T08:16:10.073Z,742.50
2023-04-07T08:17:10.202Z,703.12
2023-04-07T08:18:10.436Z,658.12
2023-04-07T08:19:10.513Z,635.62
2023-04-07T08:20:10.715Z,624.38
2023-04-07T08:21:10.880Z,613.12
2023-04-07T08:22:11.089Z,596.25
2023-04-07T08:23:11.233Z,579.38
2023-04-07T08:24:11.407Z,556.88
2023-04-07T08:25:11.683Z,551.25
2023-04-07T08:26:11.773Z,551.25
2023-04-07T08:27:11.914Z,534.38
2023-04-07T08:28:12.111Z,500.62
2023-04-07T08:29:12.246Z,489.38
2023-04-07T08:30:12.467Z,495.00
2023-04-07T08:31:12.672Z,511.88
2023-04-07T08:32:12.789Z,545.62
2023-04-07T08:33:12.970Z,551.25
2023-04-07T08:34:13.192Z,534.38
2023-04-07T08:35:13.293Z,500.62
2023-04-07T08:36:13.524Z,472.50
2023-04-07T08:37:13.693Z,466.88
2023-04-07T08:38:13.858Z,483.75
2023-04-07T08:39:14.009Z,517.50
2023-04-07T08:40:14.182Z,545.62
2023-04-07T08:41:14.402Z,562.50
2023-04-07T08:42:14.574Z,573.75
2023-04-07T08:43:14.737Z,596.25
2023-04-07T08:44:14.924Z,630.00
2023-04-07T08:45:15.078Z,658.12
2023-04-07T08:46:15.304Z,675.00
2023-04-07T08:47:15.441Z,708.75
2023-04-07T08:48:15.608Z,759.38
2023-04-07T08:49:15.766Z,793.12
2023-04-07T08:50:15.949Z,793.12
2023-04-07T08:51:16.115Z,765.00
2023-04-07T08:52:16.297Z,720.00
2023-04-07T08:53:16.472Z,669.38
2023-04-07T08:54:16.647Z,618.75
2023-04-07T08:55:16.801Z,601.88
2023-04-07T08:56:16.992Z,601.88
2023-04-07T08:57:17.172Z,585.00
2023-04-07T08:58:17.336Z,562.50
2023-04-07T08:59:17.493Z,545.62
2023-04-07T09:00:17.638Z,534.38
2023-04-07T09:01:17.844Z,517.50
2023-04-07T09:02:19.574Z,489.38
2023-04-07T09:03:18.269Z,466.88
2023-04-07T09:04:18.401Z,450.00
2023-04-07T09:05:18.488Z,433.12
2023-04-07T09:06:18.682Z,427.50
2023-04-07T09:07:18.826Z,421.88
2023-04-07T09:08:19.020Z,427.50
2023-04-07T09:09:19.182Z,433.12
2023-04-07T09:10:19.354Z,450.00
2023-04-07T09:11:19.550Z,461.25
2023-04-07T09:12:19.696Z,461.25
2023-04-07T09:13:19.872Z,455.62
2023-04-07T09:14:20.051Z,444.38
2023-04-07T09:15:20.262Z,438.75
2023-04-07T09:16:20.485Z,450.00
2023-04-07T09:17:20.588Z,472.50
2023-04-07T09:18:20.809Z,517.50
2023-04-07T09:19:20.952Z,596.25
2023-04-07T09:20:21.145Z,658.12
2023-04-07T09:21:21.324Z,680.62
2023-04-07T09:22:21.491Z,663.75
2023-04-07T09:23:21.678Z,641.25
2023-04-07T09:24:21.840Z,652.50
2023-04-07T09:25:22.021Z,669.38
2023-04-07T09:26:22.228Z,658.12
2023-04-07T09:27:22.360Z,635.62
2023-04-07T09:28:22.541Z,630.00
2023-04-07T09:29:22.691Z,646.88
2023-04-07T09:30:22.951Z,658.12
2023-04-07T09:31:23.115Z,646.88
2023-04-07T09:32:23.209Z,635.62
2023-04-07T09:33:23.335Z,618.75
2023-04-07T09:34:23.500Z,607.50
2023-04-07T09:35:23.695Z,607.50
2023-04-07T09:36:23.820Z,607.50
2023-04-07T09:37:23.993Z,618.75
2023-04-07T09:38:24.188Z,630.00
2023-04-07T09:39:24.336Z,635.62
2023-04-07T09:40:24.507Z,613.12
2023-04-07T09:41:24.683Z,585.00
2023-04-07T09:42:24.831Z,562.50
2023-04-07T09:43:25.019Z,556.88
2023-04-07T09:44:25.203Z,562.50
2023-04-07T09:45:33.962Z,562.50
2023-04-07T09:46:26.561Z,562.50
2023-04-07T09:47:25.758Z,579.38
2023-04-07T09:48:25.928Z,590.62
2023-04-07T09:49:26.082Z,579.38
2023-04-07T09:50:26.252Z,545.62
2023-04-07T09:51:26.428Z,528.75
2023-04-07T09:52:26.616Z,517.50
2023-04-07T09:53:26.802Z,495.00
2023-04-07T09:54:26.953Z,489.38
2023-04-07T09:55:27.145Z,495.00
2023-04-07T09:56:27.302Z,495.00
2023-04-07T09:57:27.493Z,466.88
2023-04-07T09:58:27.651Z,444.38
2023-04-07T09:59:27.799Z,450.00
2023-04-07T10:00:28.016Z,483.75
2023-04-07T10:01:28.286Z,506.25
2023-04-07T10:02:28.531Z,523.12
2023-04-07T10:03:28.593Z,523.12
2023-04-07T10:04:28.734Z,506.25
2023-04-07T10:05:28.894Z,461.25
2023-04-07T10:06:29.046Z,410.62
2023-04-07T10:07:29.198Z,393.75
2023-04-07T10:08:29.378Z,393.75
2023-04-07T10:09:29.561Z,405.00
2023-04-07T10:10:29.734Z,433.12
2023-04-07T10:11:29.923Z,478.12
2023-04-07T10:12:30.072Z,528.75
2023-04-07T10:13:30.280Z,585.00
2023-04-07T10:14:30.438Z,618.75
2023-04-07T10:15:30.591Z,652.50
2023-04-07T10:16:30.825Z,675.00
2023-04-07T10:17:30.948Z,686.25
2023-04-07T10:18:31.138Z,669.38
2023-04-07T10:19:31.326Z,635.62
2023-04-07T10:20:31.452Z,613.12
2023-04-07T10:21:32.868Z,585.00
2023-04-07T10:22:31.797Z,540.00
2023-04-07T10:23:32.017Z,523.12
2023-04-07T10:24:32.148Z,523.12
2023-04-07T10:25:32.408Z,534.38
2023-04-07T10:26:32.505Z,556.88
2023-04-07T10:27:32.688Z,562.50
2023-04-07T10:28:32.919Z,556.88
2023-04-07T10:29:33.050Z,551.25
2023-04-07T10:30:33.245Z,545.62
2023-04-07T10:31:33.439Z,545.62
2023-04-07T10:32:33.564Z,545.62
2023-04-07T10:33:33.753Z,562.50
2023-04-07T10:34:33.890Z,585.00
2023-04-07T10:35:34.131Z,613.12
2023-04-07T10:36:34.259Z,635.62
2023-04-07T10:37:34.430Z,641.25
2023-04-07T10:38:34.654Z,635.62
2023-04-07T10:39:34.740Z,613.12
2023-04-07T10:40:34.943Z,601.88
2023-04-07T10:41:35.109Z,596.25
2023-04-07T10:42:35.237Z,596.25
2023-04-07T10:43:35.426Z,601.88
2023-04-07T10:44:35.579Z,618.75
2023-04-07T10:45:35.754Z,641.25
2023-04-07T10:46:35.966Z,669.38
2023-04-07T10:47:36.118Z,697.50
2023-04-07T10:48:36.310Z,714.38
2023-04-07T10:49:36.440Z,725.62
2023-04-07T10:50:36.616Z,742.50
2023-04-07T10:51:36.799Z,765.00
2023-04-07T10:52:36.962Z,787.50
2023-04-07T10:53:37.182Z,804.38
2023-04-07T10:54:37.329Z,804.38
2023-04-07T10:55:37.518Z,787.50
2023-04-07T10:56:37.670Z,765.00
2023-04-07T10:57:37.825Z,725.62
2023-04-07T10:58:38.036Z,703.12
2023-04-07T10:59:38.169Z,680.62
2023-04-07T11:00:38.353Z,669.38
2023-04-07T11:01:38.660Z,675.00
2023-04-07T11:02:38.893Z,680.62
2023-04-07T11:03:39.113Z,691.88
2023-04-07T11:04:39.123Z,714.38
2023-04-07T11:05:39.200Z,753.75
2023-04-07T11:06:39.355Z,798.75
2023-04-07T11:07:39.549Z,826.88
2023-04-07T11:08:39.752Z,843.75
2023-04-07T11:09:39.875Z,855.00
2023-04-07T11:10:40.068Z,866.25
2023-04-07T11:11:40.210Z,866.25
2023-04-07T11:12:40.394Z,855.00
2023-04-07T11:13:40.595Z,838.12
2023-04-07T11:14:40.750Z,821.25
2023-04-07T11:15:41.152Z,815.62
2023-04-07T11:16:41.082Z,838.12
2023-04-07T11:17:41.301Z,860.62
2023-04-07T11:18:41.450Z,855.00
2023-04-07T11:19:41.602Z,843.75
2023-04-07T11:20:42.903Z,860.62
2023-04-07T11:21:41.956Z,916.88
2023-04-07T11:22:42.114Z,916.88
2023-04-07T11:23:42.300Z,855.00
2023-04-07T11:24:42.465Z,815.62
2023-04-07T11:25:42.625Z,815.62
2023-04-07T11:26:42.797Z,832.50
2023-04-07T11:27:42.950Z,843.75
2023-04-07T11:28:43.110Z,832.50
2023-04-07T11:29:43.290Z,793.12
2023-04-07T11:30:43.463Z,776.25
2023-04-07T11:31:43.705Z,781.88
2023-04-07T11:32:43.813Z,798.75
2023-04-07T11:33:43.983Z,815.62
2023-04-07T11:34:44.143Z,838.12
2023-04-07T11:35:44.314Z,849.38
2023-04-07T11:36:44.496Z,855.00
2023-04-07T11:37:44.626Z,871.88
2023-04-07T11:38:46.689Z,888.75
2023-04-07T11:39:44.984Z,871.88
2023-04-07T11:40:45.162Z,843.75
2023-04-07T11:41:45.316Z,821.25
2023-04-07T11:42:45.478Z,793.12
2023-04-07T11:43:45.773Z,759.38
2023-04-07T11:44:45.814Z,725.62
2023-04-07T11:45:45.973Z,703.12
2023-04-07T11:46:46.162Z,669.38
2023-04-07T11:47:46.385Z,618.75
2023-04-07T11:48:46.491Z,579.38
2023-04-07T11:49:46.657Z,562.50
2023-04-07T11:50:46.852Z,568.12
2023-04-07T11:51:47.040Z,579.38
2023-04-07T11:52:47.203Z,596.25
2023-04-07T11:53:47.783Z,630.00
2023-04-07T11:54:47.608Z,669.38
2023-04-07T11:55:47.775Z,703.12
2023-04-07T11:56:47.945Z,725.62
2023-04-07T11:57:48.135Z,753.75
2023-04-07T11:58:48.296Z,776.25
2023-04-07T11:59:48.468Z,787.50
2023-04-07T12:00:48.619Z,781.88
2023-04-07T12:01:48.817Z,765.00
2023-04-07T12:02:49.080Z,748.12
2023-04-07T12:03:49.529Z,736.88
2023-04-07T12:04:49.393Z,731.25
2023-04-07T12:05:49.497Z,708.75
2023-04-07T12:06:49.659Z,675.00
2023-04-07T12:07:49.861Z,652.50
2023-04-07T12:08:50.025Z,635.62
2023-04-07T12:09:50.196Z,624.38
2023-04-07T12:10:50.350Z,618.75
2023-04-07T12:11:50.544Z,624.38
2023-04-07T12:12:50.732Z,646.88
2023-04-07T12:13:51.044Z,663.75
2023-04-07T12:14:51.068Z,675.00
2023-04-07T12:15:51.232Z,680.62
2023-04-07T12:16:51.441Z,680.62
2023-04-07T12:17:52.580Z,680.62
2023-04-07T12:18:51.758Z,691.88
2023-04-07T12:19:51.923Z,714.38
2023-04-07T12:20:52.111Z,731.25
2023-04-07T12:21:52.337Z,748.12
2023-04-07T12:22:52.471Z,753.75
2023-04-07T12:23:52.672Z,753.75
2023-04-07T12:24:52.811Z,753.75
2023-04-07T12:25:53.040Z,748.12
2023-04-07T12:26:53.163Z,742.50
2023-04-07T12:27:53.316Z,742.50
2023-04-07T12:28:53.485Z,736.88
2023-04-07T12:29:53.662Z,731.25
2023-04-07T12:30:53.817Z,714.38
2023-04-07T12:31:54.052Z,686.25
2023-04-07T12:32:54.191Z,663.75
2023-04-07T12:33:54.368Z,652.50
2023-04-07T12:34:54.484Z,646.88
2023-04-07T12:35:54.672Z,646.88
2023-04-07T12:36:54.826Z,652.50
2023-04-07T12:37:54.987Z,646.88
2023-04-07T12:38:55.164Z,618.75
2023-04-07T12:39:55.354Z,585.00
2023-04-07T12:40:55.555Z,596.25
2023-04-07T12:41:55.703Z,624.38
2023-04-07T12:42:55.865Z,630.00
2023-04-07T12:43:56.053Z,663.75
2023-04-07T12:44:56.179Z,680.62
2023-04-07T12:45:56.387Z,686.25
2023-04-07T12:46:56.517Z,691.88
2023-04-07T12:47:56.741Z,680.62